sensor_id;sensor_type;location;lat;lon;timestamp;temperature;humidity
19152;DHT22;9708;53.114;9.388;2023-03-01T03:42:35;-3.00;99.90
19152;DHT22;9708;53.114;9.388;2023-03-01T03:45:02;-2.90;99.90
19152;DHT22;9708;53.114;9.388;2023-03-01T03:47:29;-2.90;99.90
19152;DHT22;9708;53.114;9.388;2023-03-01T03:49:56;-3.00;99.90
19152;DHT22;9708;53.114;9.388;2023-03-01T03:52:22;-3.00;99.90
19152;DHT22;9708;53.114;9.388;2023-03-01T03:54:49;-2.90;99.90
19152;DHT22;9708;53.114;9.388;2023-03-01T03:57:16;-2.90;99.90
19152;DHT22;9708;53.114;9.388;2023-03-01T03:59:44;-3.00;99.90
19152;DHT22;9708;53.114;9.388;2023-03-01T04:02:11;-3.00;99.90
19152;DHT22;9708;53.114;9.388;2023-03-01T04:04:38;-3.00;99.90
19152;DHT22;9708;53.114;9.388;2023-03-01T04:07:04;-3.10;99.90
19152;DHT22;9708;53.114;9.388;2023-03-01T04:09:31;-3.10;99.90
19152;DHT22;9708;53.114;9.388;2023-03-01T04:11:58;-3.10;99.90
19152;DHT22;9708;53.114;9.388;2023-03-01T04:14:25;-3.10;99.90
19152;DHT22;9708;53.114;9.388;2023-03-01T04:16:53;-3.10;99.90
19152;DHT22;9708;53.114;9.388;2023-03-01T04:19:20;-3.10;99.90
19152;DHT22;9708;53.114;9.388;2023-03-01T04:21:47;-3.10;99.90
19152;DHT22;9708;53.114;9.388;2023-03-01T04:24:13;-3.10;99.90
19152;DHT22;9708;53.114;9.388;2023-03-01T04:26:40;-3.20;99.90
19152;DHT22;9708;53.114;9.388;2023-03-01T04:29:07;-3.20;99.90
19152;DHT22;9708;53.114;9.388;2023-03-01T04:31:34;-3.20;99.90
19152;DHT22;9708;53.114;9.388;2023-03-01T04:34:02;-3.20;99.90
19152;DHT22;9708;53.114;9.388;2023-03-01T04:36:29;-3.20;99.90
19152;DHT22;9708;53.114;9.388;2023-03-01T04:38:56;-3.20;99.90
19152;DHT22;9708;53.114;9.388;2023-03-01T04:41:24;-3.30;99.90
19152;DHT22;9708;53.114;9.388;2023-03-01T04:43:51;-3.20;99.90
19152;DHT22;9708;53.114;9.388;2023-03-01T04:46:19;-3.20;99.90
19152;DHT22;9708;53.114;9.388;2023-03-01T04:48:47;-3.20;99.90
19152;DHT22;9708;53.114;9.388;2023-03-01T04:51:15;-3.20;99.90
19152;DHT22;9708;53.114;9.388;2023-03-01T04:53:42;-3.20;99.90
19152;DHT22;9708;53.114;9.388;2023-03-01T04:56:09;-3.20;99.90
19152;DHT22;9708;53.114;9.388;2023-03-01T04:58:37;-3.20;99.90
19152;DHT22;9708;53.114;9.388;2023-03-01T05:01:08;-3.30;99.90
19152;DHT22;9708;53.114;9.388;2023-03-01T05:03:41;-3.30;99.90
19152;DHT22;9708;53.114;9.388;2023-03-01T05:06:07;-3.40;99.90
19152;DHT22;9708;53.114;9.388;2023-03-01T05:08:36;-3.30;99.90
19152;DHT22;9708;53.114;9.388;2023-03-01T05:11:03;-3.30;99.90
19152;DHT22;9708;53.114;9.388;2023-03-01T05:13:30;-3.30;99.90
19152;DHT22;9708;53.114;9.388;2023-03-01T05:15:59;-3.30;99.90
19152;DHT22;9708;53.114;9.388;2023-03-01T05:18:27;-3.30;99.90
19152;DHT22;9708;53.114;9.388;2023-03-01T05:21:02;-3.30;99.90
19152;DHT22;9708;53.114;9.388;2023-03-01T05:23:29;-3.40;99.90
19152;DHT22;9708;53.114;9.388;2023-03-01T05:25:59;-3.30;99.90
19152;DHT22;9708;53.114;9.388;2023-03-01T05:28:27;-3.20;99.90
19152;DHT22;9708;53.114;9.388;2023-03-01T05:30:55;-3.40;99.90
19152;DHT22;9708;53.114;9.388;2023-03-01T05:33:23;-3.40;99.90
19152;DHT22;9708;53.114;9.388;2023-03-01T05:35:50;-3.40;99.90
19152;DHT22;9708;53.114;9.388;2023-03-01T05:38:19;-3.50;99.90
19152;DHT22;9708;53.114;9.388;2023-03-01T05:40:48;-3.40;99.90
19152;DHT22;9708;53.114;9.388;2023-03-01T05:43:17;-3.40;99.90
19152;DHT22;9708;53.114;9.388;2023-03-01T05:45:45;-3.40;99.90
19152;DHT22;9708;53.114;9.388;2023-03-01T05:48:12;-3.40;99.90
19152;DHT22;9708;53.114;9.388;2023-03-01T05:50:41;-3.50;99.90
19152;DHT22;9708;53.114;9.388;2023-03-01T05:53:11;-3.40;99.90
19152;DHT22;9708;53.114;9.388;2023-03-01T05:55:38;-3.40;99.90
19152;DHT22;9708;53.114;9.388;2023-03-01T05:58:07;-3.40;99.90
19152;DHT22;9708;53.114;9.388;2023-03-01T06:00:35;-3.30;99.90
19152;DHT22;9708;53.114;9.388;2023-03-01T06:03:03;-3.30;99.90
19152;DHT22;9708;53.114;9.388;2023-03-01T06:05:30;-3.30;99.90
19152;DHT22;9708;53.114;9.388;2023-03-01T06:07:59;-3.30;99.90
19152;DHT22;9708;53.114;9.388;2023-03-01T06:10:25;-3.30;99.90
19152;DHT22;9708;53.114;9.388;2023-03-01T06:12:53;-3.30;99.90
19152;DHT22;9708;53.114;9.388;2023-03-01T06:15:21;-3.30;99.90
19152;DHT22;9708;53.114;9.388;2023-03-01T06:17:49;-3.30;99.90
19152;DHT22;9708;53.114;9.388;2023-03-01T06:20:21;-3.30;99.90
19152;DHT22;9708;53.114;9.388;2023-03-01T06:22:49;-3.20;99.90
19152;DHT22;9708;53.114;9.388;2023-03-01T06:25:18;-3.20;99.90
19152;DHT22;9708;53.114;9.388;2023-03-01T06:27:45;-3.00;99.90
19152;DHT22;9708;53.114;9.388;2023-03-01T06:30:14;-2.90;99.90
19152;DHT22;9708;53.114;9.388;2023-03-01T06:32:41;-2.80;99.90
19152;DHT22;9708;53.114;9.388;2023-03-01T06:35:10;-2.80;99.90
19152;DHT22;9708;53.114;9.388;2023-03-01T06:37:37;-2.80;99.90
19152;DHT22;9708;53.114;9.388;2023-03-01T06:40:05;-2.70;99.90
19152;DHT22;9708;53.114;9.388;2023-03-01T06:42:33;-2.70;99.90
19152;DHT22;9708;53.114;9.388;2023-03-01T06:45:00;-2.60;99.90
19152;DHT22;9708;53.114;9.388;2023-03-01T06:47:27;-2.30;99.90
19152;DHT22;9708;53.114;9.388;2023-03-01T06:49:54;-2.20;99.90
19152;DHT22;9708;53.114;9.388;2023-03-01T06:52:22;-2.10;99.90
19152;DHT22;9708;53.114;9.388;2023-03-01T06:54:49;-1.90;99.90
19152;DHT22;9708;53.114;9.388;2023-03-01T06:57:15;-1.70;99.90
19152;DHT22;9708;53.114;9.388;2023-03-01T06:59:42;-1.60;99.90
19152;DHT22;9708;53.114;9.388;2023-03-01T07:02:10;-1.50;99.90
19152;DHT22;9708;53.114;9.388;2023-03-01T07:04:37;-1.40;99.90
19152;DHT22;9708;53.114;9.388;2023-03-01T07:07:04;-1.30;99.90
19152;DHT22;9708;53.114;9.388;2023-03-01T07:09:32;-1.20;99.90
19152;DHT22;9708;53.114;9.388;2023-03-01T07:11:59;-1.20;99.90
19152;DHT22;9708;53.114;9.388;2023-03-01T07:14:26;-1.20;99.90
19152;DHT22;9708;53.114;9.388;2023-03-01T07:16:53;-0.90;99.90
19152;DHT22;9708;53.114;9.388;2023-03-01T07:19:21;-0.80;99.90
19152;DHT22;9708;53.114;9.388;2023-03-01T07:21:48;-0.40;99.90
19152;DHT22;9708;53.114;9.388;2023-03-01T07:24:15;0.10;99.90
19152;DHT22;9708;53.114;9.388;2023-03-01T07:26:43;0.90;99.90
19152;DHT22;9708;53.114;9.388;2023-03-01T07:29:10;1.50;99.90
19152;DHT22;9708;53.114;9.388;2023-03-01T07:31:37;2.00;99.90
19152;DHT22;9708;53.114;9.388;2023-03-01T07:34:04;2.00;99.90
19152;DHT22;9708;53.114;9.388;2023-03-01T07:36:31;1.90;99.90
19152;DHT22;9708;53.114;9.388;2023-03-01T07:38:58;1.50;99.90
19152;DHT22;9708;53.114;9.388;2023-03-01T07:41:27;1.60;99.90
19152;DHT22;9708;53.114;9.388;2023-03-01T07:43:56;1.70;99.90
19152;DHT22;9708;53.114;9.388;2023-03-01T07:46:23;1.30;99.90
19152;DHT22;9708;53.114;9.388;2023-03-01T07:48:49;1.00;99.90
19152;DHT22;9708;53.114;9.388;2023-03-01T07:51:17;0.70;99.90
19152;DHT22;9708;53.114;9.388;2023-03-01T07:53:46;0.80;99.90
19152;DHT22;9708;53.114;9.388;2023-03-01T07:56:14;1.00;99.90
19152;DHT22;9708;53.114;9.388;2023-03-01T07:58:43;1.20;99.90
19152;DHT22;9708;53.114;9.388;2023-03-01T08:01:14;1.10;99.90
19152;DHT22;9708;53.114;9.388;2023-03-01T08:03:42;1.50;99.90
19152;DHT22;9708;53.114;9.388;2023-03-01T08:06:09;1.60;99.90
19152;DHT22;9708;53.114;9.388;2023-03-01T08:08:37;1.80;99.90
19152;DHT22;9708;53.114;9.388;2023-03-01T08:11:05;1.90;99.90
19152;DHT22;9708;53.114;9.388;2023-03-01T08:13:33;1.90;99.90
19152;DHT22;9708;53.114;9.388;2023-03-01T08:16:01;1.90;99.90
19152;DHT22;9708;53.114;9.388;2023-03-01T08:18:30;2.10;99.90
19152;DHT22;9708;53.114;9.388;2023-03-01T08:21:02;1.90;99.90
19152;DHT22;9708;53.114;9.388;2023-03-01T08:23:29;1.80;99.90
19152;DHT22;9708;53.114;9.388;2023-03-01T08:26:03;2.10;99.90
19152;DHT22;9708;53.114;9.388;2023-03-01T08:28:30;2.10;99.90
19152;DHT22;9708;53.114;9.388;2023-03-01T08:30:57;2.20;99.90
19152;DHT22;9708;53.114;9.388;2023-03-01T08:33:24;2.50;99.90
19152;DHT22;9708;53.114;9.388;2023-03-01T08:35:52;2.80;99.90
19152;DHT22;9708;53.114;9.388;2023-03-01T08:38:19;2.80;99.90
19152;DHT22;9708;53.114;9.388;2023-03-01T08:40:46;2.70;99.90
19152;DHT22;9708;53.114;9.388;2023-03-01T08:43:13;2.70;99.90
19152;DHT22;9708;53.114;9.388;2023-03-01T08:45:40;2.60;99.90
19152;DHT22;9708;53.114;9.388;2023-03-01T08:48:06;2.60;99.90
19152;DHT22;9708;53.114;9.388;2023-03-01T08:50:33;2.60;99.90
19152;DHT22;9708;53.114;9.388;2023-03-01T08:53:01;2.80;99.90
19152;DHT22;9708;53.114;9.388;2023-03-01T08:55:28;3.10;99.90
19152;DHT22;9708;53.114;9.388;2023-03-01T08:57:55;3.80;99.90
19152;DHT22;9708;53.114;9.388;2023-03-01T09:00:24;4.10;99.90
19152;DHT22;9708;53.114;9.388;2023-03-01T09:02:51;4.60;99.90
19152;DHT22;9708;53.114;9.388;2023-03-01T09:05:18;4.70;99.90
19152;DHT22;9708;53.114;9.388;2023-03-01T09:07:45;4.70;99.90
19152;DHT22;9708;53.114;9.388;2023-03-01T09:10:13;5.00;99.90
19152;DHT22;9708;53.114;9.388;2023-03-01T09:12:40;5.10;99.90
19152;DHT22;9708;53.114;9.388;2023-03-01T09:15:08;5.40;99.90
19152;DHT22;9708;53.114;9.388;2023-03-01T09:17:34;5.40;99.90
19152;DHT22;9708;53.114;9.388;2023-03-01T09:20:01;5.30;99.90
19152;DHT22;9708;53.114;9.388;2023-03-01T09:22:32;5.20;99.90
19152;DHT22;9708;53.114;9.388;2023-03-01T09:24:59;5.60;99.90
19152;DHT22;9708;53.114;9.388;2023-03-01T09:27:28;5.20;99.90
19152;DHT22;9708;53.114;9.388;2023-03-01T09:29:54;5.20;99.90
19152;DHT22;9708;53.114;9.388;2023-03-01T09:32:22;5.10;99.90
19152;DHT22;9708;53.114;9.388;2023-03-01T09:34:49;5.20;99.90
19152;DHT22;9708;53.114;9.388;2023-03-01T09:37:30;5.30;99.90
19152;DHT22;9708;53.114;9.388;2023-03-01T09:39:57;5.50;99.90
19152;DHT22;9708;53.114;9.388;2023-03-01T09:42:24;5.40;99.90
19152;DHT22;9708;53.114;9.388;2023-03-01T09:44:55;5.70;99.90
19152;DHT22;9708;53.114;9.388;2023-03-01T09:47:25;6.10;99.90
19152;DHT22;9708;53.114;9.388;2023-03-01T09:49:58;6.50;99.90
19152;DHT22;9708;53.114;9.388;2023-03-01T09:52:32;6.90;99.90
19152;DHT22;9708;53.114;9.388;2023-03-01T09:55:00;7.50;99.90
19152;DHT22;9708;53.114;9.388;2023-03-01T09:57:33;8.20;99.90
19152;DHT22;9708;53.114;9.388;2023-03-01T10:00:17;8.00;99.90
19152;DHT22;9708;53.114;9.388;2023-03-01T10:02:49;7.80;99.90
19152;DHT22;9708;53.114;9.388;2023-03-01T10:05:33;8.10;99.90
19152;DHT22;9708;53.114;9.388;2023-03-01T10:08:13;7.90;99.90
19152;DHT22;9708;53.114;9.388;2023-03-01T10:10:47;7.90;99.90
19152;DHT22;9708;53.114;9.388;2023-03-01T10:13:18;8.00;99.90
19152;DHT22;9708;53.114;9.388;2023-03-01T10:15:50;8.50;99.90
19152;DHT22;9708;53.114;9.388;2023-03-01T10:18:23;9.00;99.90
19152;DHT22;9708;53.114;9.388;2023-03-01T10:20:53;9.60;99.90
19152;DHT22;9708;53.114;9.388;2023-03-01T10:23:22;9.80;99.90
19152;DHT22;9708;53.114;9.388;2023-03-01T10:26:01;10.20;99.90
19152;DHT22;9708;53.114;9.388;2023-03-01T10:28:39;10.10;99.90
19152;DHT22;9708;53.114;9.388;2023-03-01T10:31:12;10.60;99.90
19152;DHT22;9708;53.114;9.388;2023-03-01T10:33:41;11.20;99.90
19152;DHT22;9708;53.114;9.388;2023-03-01T10:36:08;11.20;99.90
19152;DHT22;9708;53.114;9.388;2023-03-01T10:38:49;11.20;99.90
19152;DHT22;9708;53.114;9.388;2023-03-01T10:41:18;11.30;99.90
19152;DHT22;9708;53.114;9.388;2023-03-01T10:43:48;11.70;99.90
19152;DHT22;9708;53.114;9.388;2023-03-01T10:46:29;11.80;99.90
19152;DHT22;9708;53.114;9.388;2023-03-01T10:49:07;12.10;99.90
19152;DHT22;9708;53.114;9.388;2023-03-01T10:51:34;12.10;99.90
19152;DHT22;9708;53.114;9.388;2023-03-01T10:54:02;12.00;99.90
19152;DHT22;9708;53.114;9.388;2023-03-01T10:56:46;12.30;99.90
19152;DHT22;9708;53.114;9.388;2023-03-01T10:59:26;12.70;99.90
19152;DHT22;9708;53.114;9.388;2023-03-01T11:02:16;12.40;99.90
19152;DHT22;9708;53.114;9.388;2023-03-01T11:04:57;13.10;99.90
19152;DHT22;9708;53.114;9.388;2023-03-01T11:07:24;13.30;99.90
19152;DHT22;9708;53.114;9.388;2023-03-01T11:09:51;13.50;99.90
19152;DHT22;9708;53.114;9.388;2023-03-01T11:12:19;14.00;99.90
19152;DHT22;9708;53.114;9.388;2023-03-01T11:14:47;14.20;99.90
19152;DHT22;9708;53.114;9.388;2023-03-01T11:17:20;14.50;99.90
19152;DHT22;9708;53.114;9.388;2023-03-01T11:20:01;14.50;99.90
19152;DHT22;9708;53.114;9.388;2023-03-01T11:22:30;14.30;99.90
19152;DHT22;9708;53.114;9.388;2023-03-01T11:24:58;14.50;99.90
19152;DHT22;9708;53.114;9.388;2023-03-01T11:27:28;13.90;99.90
19152;DHT22;9708;53.114;9.388;2023-03-01T11:29:58;13.60;99.90
19152;DHT22;9708;53.114;9.388;2023-03-01T11:32:31;13.70;99.90
19152;DHT22;9708;53.114;9.388;2023-03-01T11:35:05;13.90;99.90
19152;DHT22;9708;53.114;9.388;2023-03-01T11:37:40;13.70;99.90
19152;DHT22;9708;53.114;9.388;2023-03-01T11:40:17;13.60;99.90
19152;DHT22;9708;53.114;9.388;2023-03-01T11:42:56;13.50;99.90
19152;DHT22;9708;53.114;9.388;2023-03-01T11:45:30;13.70;99.90
19152;DHT22;9708;53.114;9.388;2023-03-01T11:48:11;13.90;99.90
19152;DHT22;9708;53.114;9.388;2023-03-01T11:50:41;14.00;99.90
19152;DHT22;9708;53.114;9.388;2023-03-01T11:53:29;14.20;99.90
19152;DHT22;9708;53.114;9.388;2023-03-01T11:56:11;13.90;99.90
19152;DHT22;9708;53.114;9.388;2023-03-01T11:58:58;13.90;99.90
19152;DHT22;9708;53.114;9.388;2023-03-01T12:01:35;13.10;99.90
19152;DHT22;9708;53.114;9.388;2023-03-01T12:04:36;13.60;99.90
19152;DHT22;9708;53.114;9.388;2023-03-01T12:07:13;13.90;99.90
19152;DHT22;9708;53.114;9.388;2023-03-01T12:09:50;14.30;99.90
19152;DHT22;9708;53.114;9.388;2023-03-01T12:12:29;14.80;99.90
19152;DHT22;9708;53.114;9.388;2023-03-01T12:15:24;14.40;99.90
19152;DHT22;9708;53.114;9.388;2023-03-01T12:18:13;14.40;99.90
19152;DHT22;9708;53.114;9.388;2023-03-01T12:20:48;14.10;99.90
19152;DHT22;9708;53.114;9.388;2023-03-01T12:26:19;14.40;99.90
19152;DHT22;9708;53.114;9.388;2023-03-01T12:28:55;15.20;99.90
19152;DHT22;9708;53.114;9.388;2023-03-01T12:34:53;16.00;99.90
19152;DHT22;9708;53.114;9.388;2023-03-01T12:37:36;15.70;99.90
19152;DHT22;9708;53.114;9.388;2023-03-01T12:40:53;15.30;99.90
19152;DHT22;9708;53.114;9.388;2023-03-01T12:43:33;15.60;99.90
19152;DHT22;9708;53.114;9.388;2023-03-01T12:46:21;14.70;99.90
19152;DHT22;9708;53.114;9.388;2023-03-01T12:48:58;14.70;99.90
19152;DHT22;9708;53.114;9.388;2023-03-01T12:51:29;14.90;99.90
19152;DHT22;9708;53.114;9.388;2023-03-01T12:53:59;14.80;99.90
19152;DHT22;9708;53.114;9.388;2023-03-01T12:56:30;14.90;99.90
19152;DHT22;9708;53.114;9.388;2023-03-01T12:59:03;15.00;99.90
19152;DHT22;9708;53.114;9.388;2023-03-01T13:01:41;14.60;99.90
19152;DHT22;9708;53.114;9.388;2023-03-01T13:04:32;14.20;99.90
19152;DHT22;9708;53.114;9.388;2023-03-01T13:07:14;14.40;99.90
19152;DHT22;9708;53.114;9.388;2023-03-01T13:09:49;14.40;99.90
19152;DHT22;9708;53.114;9.388;2023-03-01T13:12:44;14.50;99.90
19152;DHT22;9708;53.114;9.388;2023-03-01T13:15:25;14.40;99.90
19152;DHT22;9708;53.114;9.388;2023-03-01T13:17:54;14.10;99.90
19152;DHT22;9708;53.114;9.388;2023-03-01T13:20:23;13.60;99.90
19152;DHT22;9708;53.114;9.388;2023-03-01T13:23:01;13.30;99.90
19152;DHT22;9708;53.114;9.388;2023-03-01T13:25:30;13.00;99.90
19152;DHT22;9708;53.114;9.388;2023-03-01T13:30:57;12.70;99.90
19152;DHT22;9708;53.114;9.388;2023-03-01T13:33:40;12.80;99.90
19152;DHT22;9708;53.114;9.388;2023-03-01T13:36:08;12.80;99.90
19152;DHT22;9708;53.114;9.388;2023-03-01T13:38:45;12.70;99.90
19152;DHT22;9708;53.114;9.388;2023-03-01T13:41:14;12.40;99.90
19152;DHT22;9708;53.114;9.388;2023-03-01T13:43:43;11.70;99.90
19152;DHT22;9708;53.114;9.388;2023-03-01T13:46:15;11.40;99.90
19152;DHT22;9708;53.114;9.388;2023-03-01T13:48:45;11.00;99.90
19152;DHT22;9708;53.114;9.388;2023-03-01T13:51:12;11.20;99.90
19152;DHT22;9708;53.114;9.388;2023-03-01T13:53:42;11.20;99.90
19152;DHT22;9708;53.114;9.388;2023-03-01T13:56:14;11.00;99.90
19152;DHT22;9708;53.114;9.388;2023-03-01T13:58:49;10.60;99.90
19152;DHT22;9708;53.114;9.388;2023-03-01T14:01:26;11.20;99.90
19152;DHT22;9708;53.114;9.388;2023-03-01T14:03:53;11.40;99.90
19152;DHT22;9708;53.114;9.388;2023-03-01T14:06:23;11.50;99.90
19152;DHT22;9708;53.114;9.388;2023-03-01T14:09:00;11.60;99.90
19152;DHT22;9708;53.114;9.388;2023-03-01T14:11:49;11.70;99.90
19152;DHT22;9708;53.114;9.388;2023-03-01T14:17:30;12.00;99.90
19152;DHT22;9708;53.114;9.388;2023-03-01T14:20:07;12.30;99.90
19152;DHT22;9708;53.114;9.388;2023-03-01T14:22:36;12.00;99.90
19152;DHT22;9708;53.114;9.388;2023-03-01T14:25:05;12.10;99.90
19152;DHT22;9708;53.114;9.388;2023-03-01T14:27:36;11.60;99.90
19152;DHT22;9708;53.114;9.388;2023-03-01T14:30:13;11.90;99.90
19152;DHT22;9708;53.114;9.388;2023-03-01T14:32:40;11.90;99.90
19152;DHT22;9708;53.114;9.388;2023-03-01T14:35:20;12.20;99.90
19152;DHT22;9708;53.114;9.388;2023-03-01T14:37:47;12.20;99.90
19152;DHT22;9708;53.114;9.388;2023-03-01T14:40:22;12.00;99.90
19152;DHT22;9708;53.114;9.388;2023-03-01T14:42:51;11.70;99.90
19152;DHT22;9708;53.114;9.388;2023-03-01T14:45:19;12.00;99.90
19152;DHT22;9708;53.114;9.388;2023-03-01T14:47:46;12.00;99.90
19152;DHT22;9708;53.114;9.388;2023-03-01T14:50:23;12.00;99.90
19152;DHT22;9708;53.114;9.388;2023-03-01T14:52:52;11.70;99.90
19152;DHT22;9708;53.114;9.388;2023-03-01T14:55:21;11.50;99.90
19152;DHT22;9708;53.114;9.388;2023-03-01T14:57:52;11.00;99.90
19152;DHT22;9708;53.114;9.388;2023-03-01T15:00:21;10.60;99.90
19152;DHT22;9708;53.114;9.388;2023-03-01T15:02:50;10.30;99.90
19152;DHT22;9708;53.114;9.388;2023-03-01T15:05:21;10.20;99.90
19152;DHT22;9708;53.114;9.388;2023-03-01T15:07:49;9.90;99.90
19152;DHT22;9708;53.114;9.388;2023-03-01T15:10:21;9.80;99.90
19152;DHT22;9708;53.114;9.388;2023-03-01T15:12:48;9.70;99.90
19152;DHT22;9708;53.114;9.388;2023-03-01T15:15:34;9.70;99.90
19152;DHT22;9708;53.114;9.388;2023-03-01T15:18:03;9.50;99.90
19152;DHT22;9708;53.114;9.388;2023-03-01T15:20:33;9.30;99.90
19152;DHT22;9708;53.114;9.388;2023-03-01T15:23:03;9.20;99.90
19152;DHT22;9708;53.114;9.388;2023-03-01T15:25:31;9.20;99.90
19152;DHT22;9708;53.114;9.388;2023-03-01T15:28:00;9.10;99.90
19152;DHT22;9708;53.114;9.388;2023-03-01T15:30:31;9.00;99.90
19152;DHT22;9708;53.114;9.388;2023-03-01T15:33:19;9.00;99.90
19152;DHT22;9708;53.114;9.388;2023-03-01T15:35:48;8.90;99.90
19152;DHT22;9708;53.114;9.388;2023-03-01T15:38:25;8.90;99.90
19152;DHT22;9708;53.114;9.388;2023-03-01T15:40:53;8.80;99.90
19152;DHT22;9708;53.114;9.388;2023-03-01T15:43:42;8.70;99.90
19152;DHT22;9708;53.114;9.388;2023-03-01T15:46:23;8.60;99.90
19152;DHT22;9708;53.114;9.388;2023-03-01T15:48:53;8.60;99.90
19152;DHT22;9708;53.114;9.388;2023-03-01T15:51:28;8.50;99.90
19152;DHT22;9708;53.114;9.388;2023-03-01T15:53:58;8.30;99.90
19152;DHT22;9708;53.114;9.388;2023-03-01T15:56:25;8.30;99.90
19152;DHT22;9708;53.114;9.388;2023-03-01T15:58:52;8.30;99.90
19152;DHT22;9708;53.114;9.388;2023-03-01T16:01:20;8.10;99.90
19152;DHT22;9708;53.114;9.388;2023-03-01T16:03:47;8.00;99.90
19152;DHT22;9708;53.114;9.388;2023-03-01T16:06:14;8.00;99.90
19152;DHT22;9708;53.114;9.388;2023-03-01T16:08:40;7.90;99.90
19152;DHT22;9708;53.114;9.388;2023-03-01T16:11:15;7.80;99.90
19152;DHT22;9708;53.114;9.388;2023-03-01T16:13:43;7.80;99.90
19152;DHT22;9708;53.114;9.388;2023-03-01T16:16:11;7.70;99.90
19152;DHT22;9708;53.114;9.388;2023-03-01T16:18:42;7.70;99.90
19152;DHT22;9708;53.114;9.388;2023-03-01T16:21:16;7.50;99.90
19152;DHT22;9708;53.114;9.388;2023-03-01T16:23:44;7.40;99.90
19152;DHT22;9708;53.114;9.388;2023-03-01T16:26:11;7.40;99.90
19152;DHT22;9708;53.114;9.388;2023-03-01T16:28:38;7.40;99.90
19152;DHT22;9708;53.114;9.388;2023-03-01T16:31:05;7.20;99.90
19152;DHT22;9708;53.114;9.388;2023-03-01T16:33:32;7.10;99.90
19152;DHT22;9708;53.114;9.388;2023-03-01T16:36:00;7.10;99.90
19152;DHT22;9708;53.114;9.388;2023-03-01T16:38:28;7.00;99.90
19152;DHT22;9708;53.114;9.388;2023-03-01T16:40:54;6.90;99.90
19152;DHT22;9708;53.114;9.388;2023-03-01T16:43:21;6.80;99.90
19152;DHT22;9708;53.114;9.388;2023-03-01T16:45:48;6.70;99.90
19152;DHT22;9708;53.114;9.388;2023-03-01T16:48:15;6.60;99.90
19152;DHT22;9708;53.114;9.388;2023-03-01T16:50:42;6.50;99.90
19152;DHT22;9708;53.114;9.388;2023-03-01T16:53:10;6.30;99.90
19152;DHT22;9708;53.114;9.388;2023-03-01T16:55:36;6.40;99.90
19152;DHT22;9708;53.114;9.388;2023-03-01T16:58:10;6.30;99.90
19152;DHT22;9708;53.114;9.388;2023-03-01T17:00:37;6.20;99.90
19152;DHT22;9708;53.114;9.388;2023-03-01T17:03:03;6.20;99.90
19152;DHT22;9708;53.114;9.388;2023-03-01T17:05:30;6.10;99.90
19152;DHT22;9708;53.114;9.388;2023-03-01T17:07:57;6.00;99.90
19152;DHT22;9708;53.114;9.388;2023-03-01T17:10:26;5.90;99.90
19152;DHT22;9708;53.114;9.388;2023-03-01T17:12:53;5.70;99.90
19152;DHT22;9708;53.114;9.388;2023-03-01T17:15:20;5.60;99.90
19152;DHT22;9708;53.114;9.388;2023-03-01T17:17:46;5.50;99.90
19152;DHT22;9708;53.114;9.388;2023-03-01T17:20:16;5.40;99.90
19152;DHT22;9708;53.114;9.388;2023-03-01T17:22:43;5.30;99.90
19152;DHT22;9708;53.114;9.388;2023-03-01T17:25:10;5.30;99.90
19152;DHT22;9708;53.114;9.388;2023-03-01T17:27:39;5.30;99.90
19152;DHT22;9708;53.114;9.388;2023-03-01T17:30:08;5.20;99.90
19152;DHT22;9708;53.114;9.388;2023-03-01T17:32:35;5.10;99.90
19152;DHT22;9708;53.114;9.388;2023-03-01T17:35:02;5.00;99.90
19152;DHT22;9708;53.114;9.388;2023-03-01T17:37:29;4.90;99.90
19152;DHT22;9708;53.114;9.388;2023-03-01T17:39:55;4.80;99.90
19152;DHT22;9708;53.114;9.388;2023-03-01T17:42:22;4.70;99.90
19152;DHT22;9708;53.114;9.388;2023-03-01T17:44:50;4.70;99.90
19152;DHT22;9708;53.114;9.388;2023-03-01T17:47:17;4.70;99.90
19152;DHT22;9708;53.114;9.388;2023-03-01T17:49:44;4.60;99.90
19152;DHT22;9708;53.114;9.388;2023-03-01T17:52:10;4.50;99.90
19152;DHT22;9708;53.114;9.388;2023-03-01T17:54:37;4.50;99.90
19152;DHT22;9708;53.114;9.388;2023-03-01T17:57:04;4.50;99.90
19152;DHT22;9708;53.114;9.388;2023-03-01T17:59:31;4.60;99.90
19152;DHT22;9708;53.114;9.388;2023-03-01T18:02:02;4.50;99.90
19152;DHT22;9708;53.114;9.388;2023-03-01T18:04:29;4.60;99.90
19152;DHT22;9708;53.114;9.388;2023-03-01T18:06:56;4.50;99.90
19152;DHT22;9708;53.114;9.388;2023-03-01T18:09:25;4.40;99.90
19152;DHT22;9708;53.114;9.388;2023-03-01T18:11:52;4.30;99.90
19152;DHT22;9708;53.114;9.388;2023-03-01T18:14:19;4.40;99.90
19152;DHT22;9708;53.114;9.388;2023-03-01T18:16:45;4.30;99.90
19152;DHT22;9708;53.114;9.388;2023-03-01T18:19:13;4.40;99.90
19152;DHT22;9708;53.114;9.388;2023-03-01T18:21:40;4.30;99.90
19152;DHT22;9708;53.114;9.388;2023-03-01T18:24:08;4.20;99.90
19152;DHT22;9708;53.114;9.388;2023-03-01T18:26:35;4.20;99.90
19152;DHT22;9708;53.114;9.388;2023-03-01T18:29:01;4.10;99.90
19152;DHT22;9708;53.114;9.388;2023-03-01T18:31:29;4.00;99.90
19152;DHT22;9708;53.114;9.388;2023-03-01T18:33:58;4.00;99.90
19152;DHT22;9708;53.114;9.388;2023-03-01T18:36:28;3.90;99.90
19152;DHT22;9708;53.114;9.388;2023-03-01T18:38:55;3.90;99.90
19152;DHT22;9708;53.114;9.388;2023-03-01T18:41:22;3.90;99.90
19152;DHT22;9708;53.114;9.388;2023-03-01T18:43:49;3.80;99.90
19152;DHT22;9708;53.114;9.388;2023-03-01T18:46:16;3.70;99.90
19152;DHT22;9708;53.114;9.388;2023-03-01T18:48:44;3.70;99.90
19152;DHT22;9708;53.114;9.388;2023-03-01T18:51:12;3.70;99.90
19152;DHT22;9708;53.114;9.388;2023-03-01T18:53:41;3.60;99.90
19152;DHT22;9708;53.114;9.388;2023-03-01T18:56:08;3.50;99.90
19152;DHT22;9708;53.114;9.388;2023-03-01T18:58:35;3.50;99.90
19152;DHT22;9708;53.114;9.388;2023-03-01T19:01:03;3.40;99.90
19152;DHT22;9708;53.114;9.388;2023-03-01T19:03:32;3.40;99.90
19152;DHT22;9708;53.114;9.388;2023-03-01T19:05:59;3.30;99.90
19152;DHT22;9708;53.114;9.388;2023-03-01T19:08:26;3.30;99.90
19152;DHT22;9708;53.114;9.388;2023-03-01T19:10:59;3.30;99.90
19152;DHT22;9708;53.114;9.388;2023-03-01T19:13:27;3.30;99.90
19152;DHT22;9708;53.114;9.388;2023-03-01T19:16:02;3.10;99.90
19152;DHT22;9708;53.114;9.388;2023-03-01T19:18:29;3.00;99.90
19152;DHT22;9708;53.114;9.388;2023-03-01T19:20:57;3.00;99.90
19152;DHT22;9708;53.114;9.388;2023-03-01T19:23:25;2.90;99.90
19152;DHT22;9708;53.114;9.388;2023-03-01T19:25:59;2.80;99.90
19152;DHT22;9708;53.114;9.388;2023-03-01T19:28:25;2.80;99.90
19152;DHT22;9708;53.114;9.388;2023-03-01T19:30:57;2.70;99.90
19152;DHT22;9708;53.114;9.388;2023-03-01T19:33:24;2.70;99.90
19152;DHT22;9708;53.114;9.388;2023-03-01T19:35:51;2.70;99.90
19152;DHT22;9708;53.114;9.388;2023-03-01T19:38:18;2.70;99.90
19152;DHT22;9708;53.114;9.388;2023-03-01T19:40:45;2.60;99.90
19152;DHT22;9708;53.114;9.388;2023-03-01T19:43:13;2.60;99.90
19152;DHT22;9708;53.114;9.388;2023-03-01T19:45:40;2.40;99.90
19152;DHT22;9708;53.114;9.388;2023-03-01T19:48:06;2.40;99.90
19152;DHT22;9708;53.114;9.388;2023-03-01T19:50:33;2.40;99.90
19152;DHT22;9708;53.114;9.388;2023-03-01T19:53:00;2.30;99.90
19152;DHT22;9708;53.114;9.388;2023-03-01T19:55:27;2.20;99.90
19152;DHT22;9708;53.114;9.388;2023-03-01T19:57:53;2.30;99.90
19152;DHT22;9708;53.114;9.388;2023-03-01T20:00:21;2.40;99.90
19152;DHT22;9708;53.114;9.388;2023-03-01T20:02:48;2.60;99.90
19152;DHT22;9708;53.114;9.388;2023-03-01T20:05:15;2.50;99.90
19152;DHT22;9708;53.114;9.388;2023-03-01T20:07:42;2.50;99.90